createdAt,value
2017-08-15T00:00:13.643Z,994.24
2017-08-15T00:01:13.676Z,994.2
2017-08-15T00:02:13.705Z,994.2
2017-08-15T00:03:13.733Z,994.18
2017-08-15T00:04:13.764Z,994.19
2017-08-15T00:05:13.791Z,994.17
2017-08-15T00:06:13.819Z,994.17
2017-08-15T00:07:13.850Z,994.21
2017-08-15T00:08:13.876Z,994.18
2017-08-15T00:09:13.908Z,994.19
2017-08-15T00:10:13.935Z,994.17
2017-08-15T00:11:13.964Z,994.15
2017-08-15T00:12:13.994Z,994.12
2017-08-15T00:13:14.272Z,994.11
2017-08-15T00:14:14.051Z,994.11
2017-08-15T00:15:14.080Z,994.11
2017-08-15T00:16:14.111Z,994.15
2017-08-15T00:17:14.137Z,994.13
2017-08-15T00:18:14.465Z,994.12
2017-08-15T00:19:14.195Z,994.14
2017-08-15T00:20:14.224Z,994.15
2017-08-15T00:21:14.252Z,994.15
2017-08-15T00:22:14.280Z,994.13
2017-08-15T00:23:14.609Z,994.14
2017-08-15T00:24:14.338Z,994.13
2017-08-15T00:25:14.366Z,994.14
2017-08-15T00:26:14.392Z,994.12
2017-08-15T00:27:14.426Z,994.13
2017-08-15T00:28:14.754Z,994.15
2017-08-15T00:29:14.483Z,994.14
2017-08-15T00:30:14.507Z,994.16
2017-08-15T00:31:14.533Z,994.14
2017-08-15T00:32:14.570Z,994.12
2017-08-15T00:33:14.897Z,994.14
2017-08-15T00:34:14.623Z,994.11
2017-08-15T00:35:14.652Z,994.14
2017-08-15T00:36:14.677Z,994.1
2017-08-15T00:37:14.709Z,994.06
2017-08-15T00:38:15.036Z,994.07
2017-08-15T00:39:14.766Z,994.04
2017-08-15T00:40:14.795Z,994.05
2017-08-15T00:41:14.825Z,994.02
2017-08-15T00:42:14.854Z,994.01
2017-08-15T00:43:15.182Z,994.02
2017-08-15T00:44:14.911Z,993.97
2017-08-15T00:45:14.940Z,994
2017-08-15T00:46:14.968Z,993.98
2017-08-15T00:47:14.994Z,993.98
2017-08-15T00:48:15.027Z,993.95
2017-08-15T00:49:15.054Z,993.94
2017-08-15T00:50:15.085Z,993.94
2017-08-15T00:51:15.114Z,993.94
2017-08-15T00:52:15.138Z,993.92
2017-08-15T00:53:15.166Z,993.89
2017-08-15T00:54:15.198Z,993.88
2017-08-15T00:55:15.226Z,993.91
2017-08-15T00:56:15.253Z,993.93
2017-08-15T00:57:15.282Z,993.93
2017-08-15T00:58:15.310Z,993.92
2017-08-15T00:59:15.338Z,993.89
2017-08-15T01:00:15.367Z,993.9
2017-08-15T01:01:15.397Z,993.9
2017-08-15T01:02:15.425Z,993.91
2017-08-15T01:03:15.450Z,993.93
2017-08-15T01:04:15.482Z,993.87
2017-08-15T01:05:15.513Z,993.91
2017-08-15T01:06:15.539Z,993.88
2017-08-15T01:07:15.569Z,993.95
2017-08-15T01:08:15.599Z,993.95
2017-08-15T01:09:15.623Z,993.94
2017-08-15T01:10:15.656Z,993.95
2017-08-15T01:11:15.684Z,993.96
2017-08-15T01:12:15.713Z,993.96
2017-08-15T01:13:15.742Z,993.95
2017-08-15T01:14:15.767Z,993.96
2017-08-15T01:15:15.796Z,993.91
2017-08-15T01:16:15.825Z,993.88
2017-08-15T01:17:15.853Z,993.9
2017-08-15T01:18:15.883Z,993.93
2017-08-15T01:19:15.913Z,993.89
2017-08-15T01:20:15.943Z,993.91
2017-08-15T01:21:15.969Z,993.95
2017-08-15T01:22:16.000Z,993.95
2017-08-15T01:23:16.027Z,993.9
2017-08-15T01:24:16.058Z,993.89
2017-08-15T01:25:16.083Z,993.87
2017-08-15T01:26:16.112Z,993.89
2017-08-15T01:27:16.140Z,993.86
2017-08-15T01:28:16.170Z,993.89
2017-08-15T01:29:16.195Z,993.87
2017-08-15T01:30:16.224Z,993.9
2017-08-15T01:31:16.255Z,993.88
2017-08-15T01:32:16.278Z,993.91
2017-08-15T01:33:16.310Z,993.95
2017-08-15T01:34:16.339Z,993.92
2017-08-15T01:35:16.368Z,993.95
2017-08-15T01:36:16.396Z,993.92
2017-08-15T01:37:16.427Z,993.91
2017-08-15T01:38:16.453Z,993.85
2017-08-15T01:39:16.483Z,993.92
2017-08-15T01:40:16.511Z,993.92
2017-08-15T01:41:16.541Z,993.92
2017-08-15T01:42:16.576Z,993.96
2017-08-15T01:43:16.595Z,993.95
2017-08-15T01:44:16.624Z,993.96
2017-08-15T01:45:16.653Z,993.96
2017-08-15T01:46:16.681Z,993.93
2017-08-15T01:47:16.709Z,993.92
2017-08-15T01:48:16.739Z,993.93
2017-08-15T01:49:16.771Z,993.94
2017-08-15T01:50:16.797Z,993.93
2017-08-15T01:51:16.825Z,993.94
2017-08-15T01:52:16.853Z,993.92
2017-08-15T01:53:16.884Z,993.97
2017-08-15T01:54:16.908Z,993.98
2017-08-15T01:55:16.936Z,993.94
2017-08-15T01:56:16.965Z,993.93
2017-08-15T01:57:16.995Z,993.93
2017-08-15T01:58:17.025Z,993.93
2017-08-15T01:59:17.056Z,993.94
2017-08-15T02:00:17.081Z,993.96
2017-08-15T02:01:17.109Z,993.95
2017-08-15T02:02:17.135Z,993.91
2017-08-15T02:03:17.167Z,993.94
2017-08-15T02:04:17.195Z,993.93
2017-08-15T02:05:17.220Z,993.92
2017-08-15T02:06:17.250Z,993.93
2017-08-15T02:07:17.277Z,993.91
2017-08-15T02:08:17.308Z,993.93
2017-08-15T02:09:17.335Z,993.89
2017-08-15T02:10:17.365Z,993.88
2017-08-15T02:11:17.394Z,993.9
2017-08-15T02:12:17.424Z,993.89
2017-08-15T02:13:17.453Z,993.93
2017-08-15T02:14:17.480Z,993.92
2017-08-15T02:15:17.509Z,993.95
2017-08-15T02:16:17.529Z,994.01
2017-08-15T02:17:17.563Z,994.02
2017-08-15T02:18:17.592Z,994.08
2017-08-15T02:19:17.623Z,994.06
2017-08-15T02:20:17.649Z,994.11
2017-08-15T02:21:17.676Z,994.08
2017-08-15T02:22:17.706Z,994.1
2017-08-15T02:23:17.735Z,994.14
2017-08-15T02:24:17.763Z,994.12
2017-08-15T02:25:17.792Z,994.19
2017-08-15T02:26:17.817Z,994.17
2017-08-15T02:27:17.841Z,994.2
2017-08-15T02:28:17.874Z,994.19
2017-08-15T02:29:17.904Z,994.2
2017-08-15T02:30:17.931Z,994.2
2017-08-15T02:31:17.956Z,994.19
2017-08-15T02:32:17.991Z,994.22
2017-08-15T02:33:18.019Z,994.22
2017-08-15T02:34:18.047Z,994.26
2017-08-15T02:35:18.086Z,994.23
2017-08-15T02:36:18.102Z,994.24
2017-08-15T02:37:18.138Z,994.21
2017-08-15T02:38:18.158Z,994.25
2017-08-15T02:39:18.189Z,994.21
2017-08-15T02:40:18.217Z,994.19
2017-08-15T02:41:18.249Z,994.19
2017-08-15T02:42:18.274Z,994.2
2017-08-15T02:43:18.304Z,994.2
2017-08-15T02:44:18.334Z,994.16
2017-08-15T02:45:18.365Z,994.12
2017-08-15T02:46:18.390Z,994.12
2017-08-15T02:47:18.418Z,994.07
2017-08-15T02:48:18.453Z,994.07
2017-08-15T02:49:18.476Z,994.05
2017-08-15T02:50:18.500Z,994.05
2017-08-15T02:51:18.529Z,994.06
2017-08-15T02:52:18.559Z,994.05
2017-08-15T02:53:18.587Z,994.04
2017-08-15T02:54:18.616Z,994.02
2017-08-15T02:55:18.641Z,994.05
2017-08-15T02:56:18.672Z,994.01
2017-08-15T02:57:18.702Z,994.02
2017-08-15T02:58:18.727Z,993.94
2017-08-15T02:59:18.754Z,993.96
2017-08-15T03:00:18.782Z,993.94
2017-08-15T03:01:18.835Z,993.94
2017-08-15T03:02:18.842Z,993.9
2017-08-15T03:03:18.871Z,993.88
2017-08-15T03:04:19.200Z,993.85
2017-08-15T03:05:18.925Z,993.86
2017-08-15T03:06:18.960Z,993.89
2017-08-15T03:07:18.983Z,993.87
2017-08-15T03:08:19.012Z,993.86
2017-08-15T03:09:19.040Z,993.93
2017-08-15T03:10:19.067Z,993.94
2017-08-15T03:11:19.097Z,993.95
2017-08-15T03:12:19.127Z,993.96
2017-08-15T03:13:19.155Z,993.88
2017-08-15T03:14:19.185Z,993.9
2017-08-15T03:15:19.209Z,993.9
2017-08-15T03:16:19.233Z,993.88
2017-08-15T03:17:19.267Z,993.85
2017-08-15T03:18:19.296Z,993.9
2017-08-15T03:19:19.331Z,993.88
2017-08-15T03:20:19.354Z,993.85
2017-08-15T03:21:19.384Z,993.85
2017-08-15T03:22:19.411Z,993.87
2017-08-15T03:23:19.438Z,993.88
2017-08-15T03:24:19.464Z,993.88
2017-08-15T03:25:19.491Z,993.86
2017-08-15T03:26:19.519Z,993.83
2017-08-15T03:27:19.549Z,993.82
2017-08-15T03:28:19.576Z,993.81
2017-08-15T03:29:19.604Z,993.85
2017-08-15T03:30:19.637Z,993.82
2017-08-15T03:31:19.665Z,993.87
2017-08-15T03:32:19.691Z,993.8
2017-08-15T03:33:19.718Z,993.83
2017-08-15T03:34:19.749Z,993.85
2017-08-15T03:35:19.776Z,993.84
2017-08-15T03:36:19.806Z,993.82
2017-08-15T03:37:19.833Z,993.81
2017-08-15T03:38:19.861Z,993.79
2017-08-15T03:39:19.892Z,993.8
2017-08-15T03:40:19.914Z,993.81
2017-08-15T03:41:19.945Z,993.85
2017-08-15T03:42:19.974Z,993.81
2017-08-15T03:43:20.004Z,993.84
2017-08-15T03:44:20.032Z,993.85
2017-08-15T03:45:20.061Z,993.84
2017-08-15T03:46:20.086Z,993.79
2017-08-15T03:47:20.115Z,993.78
2017-08-15T03:48:20.143Z,993.82
2017-08-15T03:49:20.171Z,993.77
2017-08-15T03:50:20.200Z,993.78
2017-08-15T03:51:20.230Z,993.74
2017-08-15T03:52:20.258Z,993.72
2017-08-15T03:53:20.287Z,993.72
2017-08-15T03:54:20.318Z,993.67
2017-08-15T03:55:20.341Z,993.72
2017-08-15T03:56:20.370Z,993.73
2017-08-15T03:57:20.665Z,993.7
2017-08-15T03:58:20.428Z,993.73
2017-08-15T03:59:20.461Z,993.78
2017-08-15T04:00:20.485Z,993.75
2017-08-15T04:01:20.514Z,993.77
2017-08-15T04:02:20.539Z,993.74
2017-08-15T04:04:29.504Z,993.79
2017-08-15T04:05:29.233Z,993.77
2017-08-15T04:06:29.284Z,993.73
2017-08-15T04:07:29.288Z,993.72
2017-08-15T04:08:29.312Z,993.7
2017-08-15T04:09:29.644Z,993.67
2017-08-15T04:10:29.373Z,993.66
2017-08-15T04:11:29.404Z,993.66
2017-08-15T04:12:29.431Z,993.66
2017-08-15T04:13:29.460Z,993.69
2017-08-15T04:14:29.736Z,993.75
2017-08-15T04:15:29.513Z,993.78
2017-08-15T04:16:29.543Z,993.74
2017-08-15T04:17:29.573Z,993.77
2017-08-15T04:18:29.600Z,993.82
2017-08-15T04:19:29.880Z,993.82
2017-08-15T04:20:29.660Z,993.82
2017-08-15T04:21:29.688Z,993.83
2017-08-15T04:22:29.711Z,993.81
2017-08-15T04:23:29.744Z,993.84
2017-08-15T04:24:30.065Z,993.84
2017-08-15T04:25:29.797Z,993.83
2017-08-15T04:26:29.824Z,993.83
2017-08-15T04:27:29.850Z,993.82
2017-08-15T04:28:29.883Z,993.83
2017-08-15T04:29:30.209Z,993.82
2017-08-15T04:30:29.937Z,993.87
2017-08-15T04:31:29.968Z,993.86
2017-08-15T04:32:29.990Z,993.87
2017-08-15T04:33:30.020Z,993.9
2017-08-15T04:34:30.053Z,993.87
2017-08-15T04:35:30.082Z,993.86
2017-08-15T04:36:30.107Z,993.89
2017-08-15T04:37:30.141Z,993.91
2017-08-15T04:38:30.165Z,993.91
2017-08-15T04:39:30.190Z,993.91
2017-08-15T04:40:30.225Z,993.95
2017-08-15T04:41:30.252Z,993.96
2017-08-15T04:42:30.278Z,993.97
2017-08-15T04:43:30.304Z,994.01
2017-08-15T04:44:30.333Z,993.99
2017-08-15T04:45:30.362Z,994.01
2017-08-15T04:46:30.391Z,993.96
2017-08-15T04:47:30.420Z,993.97
2017-08-15T04:48:30.449Z,993.98
2017-08-15T04:49:30.478Z,993.97
2017-08-15T04:50:30.506Z,993.99
2017-08-15T04:51:30.531Z,993.97
2017-08-15T04:52:30.559Z,994.01
2017-08-15T04:53:30.595Z,993.97
2017-08-15T04:54:30.618Z,993.96
2017-08-15T04:55:30.645Z,994.01
2017-08-15T04:56:30.675Z,993.98
2017-08-15T04:57:30.698Z,994
2017-08-15T04:58:30.727Z,993.97
2017-08-15T04:59:30.757Z,993.99
2017-08-15T05:00:30.785Z,993.96
2017-08-15T05:01:30.813Z,993.97
2017-08-15T05:02:30.835Z,993.91
2017-08-15T05:03:30.868Z,993.94
2017-08-15T05:04:30.899Z,993.91
2017-08-15T05:05:30.927Z,993.93
2017-08-15T05:06:30.950Z,993.87
2017-08-15T05:07:30.984Z,993.91
2017-08-15T05:08:31.014Z,993.9
2017-08-15T05:09:31.038Z,993.93
2017-08-15T05:10:31.065Z,993.92
2017-08-15T05:11:31.096Z,993.91
2017-08-15T05:12:31.125Z,993.91
2017-08-15T05:13:31.152Z,993.88
2017-08-15T05:14:31.181Z,993.86
2017-08-15T05:15:31.209Z,993.82
2017-08-15T05:16:31.234Z,993.81
2017-08-15T05:17:31.264Z,993.82
2017-08-15T05:18:31.293Z,993.79
2017-08-15T05:19:31.321Z,993.81
2017-08-15T05:20:31.349Z,993.77
2017-08-15T05:21:31.384Z,993.78
2017-08-15T05:22:31.404Z,993.74
2017-08-15T05:23:31.432Z,993.77
2017-08-15T05:24:31.462Z,993.72
2017-08-15T05:25:31.487Z,993.72
2017-08-15T05:26:31.520Z,993.81
2017-08-15T05:27:31.544Z,993.81
2017-08-15T05:28:31.573Z,993.76
2017-08-15T05:29:31.602Z,993.77
2017-08-15T05:30:31.930Z,993.76
2017-08-15T05:31:31.660Z,993.7
2017-08-15T05:32:31.686Z,993.68
2017-08-15T05:33:31.712Z,993.71
2017-08-15T05:34:31.741Z,993.64
2017-08-15T05:35:32.070Z,993.64
2017-08-15T05:36:31.798Z,993.67
2017-08-15T05:37:31.828Z,993.67
2017-08-15T05:38:31.853Z,993.69
2017-08-15T05:39:31.881Z,993.68
2017-08-15T05:40:32.161Z,993.65
2017-08-15T05:41:31.939Z,993.68
2017-08-15T05:42:31.966Z,993.67
2017-08-15T05:43:31.997Z,993.68
2017-08-15T05:44:32.026Z,993.67
2017-08-15T05:45:32.051Z,993.68
2017-08-15T05:46:32.079Z,993.73
2017-08-15T05:47:32.107Z,993.72
2017-08-15T05:48:32.135Z,993.75
2017-08-15T05:49:32.164Z,993.78
2017-08-15T05:50:32.188Z,993.83
2017-08-15T05:51:32.218Z,993.88
2017-08-15T05:52:32.248Z,993.91
2017-08-15T05:53:32.276Z,993.89
2017-08-15T05:54:32.304Z,993.91
2017-08-15T05:55:32.331Z,993.9
2017-08-15T05:56:32.361Z,993.89
2017-08-15T05:57:32.392Z,993.88
2017-08-15T05:58:32.417Z,993.92
2017-08-15T05:59:32.446Z,993.91
2017-08-15T06:00:32.477Z,993.93
2017-08-15T06:01:32.503Z,993.95
2017-08-15T06:02:32.533Z,993.93
2017-08-15T06:03:32.562Z,993.93
2017-08-15T06:04:32.585Z,993.93
2017-08-15T06:05:32.615Z,993.89
2017-08-15T06:06:32.643Z,993.87
2017-08-15T06:07:32.674Z,993.87
2017-08-15T06:08:32.697Z,993.89
2017-08-15T06:09:32.731Z,993.89
2017-08-15T06:10:32.759Z,993.9
2017-08-15T06:11:32.784Z,993.92
2017-08-15T06:12:32.811Z,993.94
2017-08-15T06:13:32.841Z,993.92
2017-08-15T06:14:32.870Z,993.92
2017-08-15T06:15:32.898Z,993.91
2017-08-15T06:16:32.926Z,993.85
2017-08-15T06:17:32.951Z,993.84
2017-08-15T06:18:32.981Z,993.87
2017-08-15T06:19:33.011Z,993.83
2017-08-15T06:20:33.035Z,993.88
2017-08-15T06:21:33.067Z,993.86
2017-08-15T06:22:33.096Z,993.79
2017-08-15T06:23:33.121Z,993.8
2017-08-15T06:24:33.149Z,993.82
2017-08-15T06:25:33.178Z,993.84
2017-08-15T06:26:33.207Z,993.87
2017-08-15T06:27:33.240Z,993.91
2017-08-15T06:28:33.265Z,993.91
2017-08-15T06:29:33.290Z,993.95
2017-08-15T06:30:33.319Z,994
2017-08-15T06:31:33.347Z,994
2017-08-15T06:32:33.375Z,994.02
2017-08-15T06:33:33.403Z,994.05
2017-08-15T06:34:33.434Z,994.08
2017-08-15T06:35:33.462Z,994.09
2017-08-15T06:36:33.492Z,994.11
2017-08-15T06:37:33.515Z,994.15
2017-08-15T06:38:33.543Z,994.14
2017-08-15T06:39:33.576Z,994.16
2017-08-15T06:40:33.598Z,994.13
2017-08-15T06:41:33.632Z,994.14
2017-08-15T06:42:33.659Z,994.12
2017-08-15T06:43:33.688Z,994.11
2017-08-15T06:44:33.714Z,994.09
2017-08-15T06:45:33.743Z,994.11
2017-08-15T06:46:33.772Z,994.09
2017-08-15T06:47:33.800Z,994.09
2017-08-15T06:48:33.830Z,994.03
2017-08-15T06:49:33.857Z,994
2017-08-15T06:50:33.887Z,994
2017-08-15T06:51:33.912Z,994.03
2017-08-15T06:52:33.940Z,994.05
2017-08-15T06:53:33.970Z,994.08
2017-08-15T06:54:33.997Z,994.03
2017-08-15T06:55:34.026Z,994
2017-08-15T06:56:34.056Z,993.95
2017-08-15T06:57:34.084Z,993.97
2017-08-15T06:58:34.114Z,993.97
2017-08-15T06:59:34.138Z,993.94
2017-08-15T07:00:34.167Z,993.91
2017-08-15T07:01:34.196Z,993.9
2017-08-15T07:02:34.236Z,993.89
2017-08-15T07:03:34.252Z,993.85
2017-08-15T07:04:34.283Z,993.86
2017-08-15T07:05:34.311Z,993.81
2017-08-15T07:06:34.337Z,993.86
2017-08-15T07:07:34.365Z,993.87
2017-08-15T07:08:34.392Z,993.85
2017-08-15T07:09:34.421Z,993.85
2017-08-15T07:10:34.451Z,993.82
2017-08-15T07:11:34.779Z,993.82
2017-08-15T07:12:34.508Z,993.84
2017-08-15T07:13:34.537Z,993.79
2017-08-15T07:14:34.562Z,993.83
2017-08-15T07:15:34.590Z,993.81
2017-08-15T07:16:34.866Z,993.78
2017-08-15T07:17:34.648Z,993.75
2017-08-15T07:18:34.673Z,993.73
2017-08-15T07:19:34.707Z,993.68
2017-08-15T07:20:34.735Z,993.68
2017-08-15T07:21:35.064Z,993.67
2017-08-15T07:22:34.793Z,993.69
2017-08-15T07:23:34.822Z,993.69
2017-08-15T07:24:34.846Z,993.6
2017-08-15T07:25:34.875Z,993.63
2017-08-15T07:26:35.204Z,993.59
2017-08-15T07:27:34.936Z,993.6
2017-08-15T07:28:34.973Z,993.64
2017-08-15T07:29:34.991Z,993.68
2017-08-15T07:30:35.020Z,993.76
2017-08-15T07:31:35.051Z,993.81
2017-08-15T07:32:35.080Z,993.83
2017-08-15T07:33:35.108Z,993.85
2017-08-15T07:34:35.134Z,993.93
2017-08-15T07:35:35.160Z,993.98
2017-08-15T07:36:35.203Z,994
2017-08-15T07:37:35.212Z,994.02
2017-08-15T07:38:35.248Z,993.98
2017-08-15T07:39:35.275Z,994.01
2017-08-15T07:40:35.302Z,994.06
2017-08-15T07:41:35.331Z,994.12
2017-08-15T07:42:35.361Z,994.18
2017-08-15T07:43:35.390Z,994.16
2017-08-15T07:44:35.419Z,994.17
2017-08-15T07:45:35.448Z,994.21
2017-08-15T07:46:35.475Z,994.25
2017-08-15T07:47:35.502Z,994.32
2017-08-15T07:48:35.529Z,994.33
2017-08-15T07:49:35.563Z,994.38
2017-08-15T07:50:35.586Z,994.39
2017-08-15T07:51:35.615Z,994.37
2017-08-15T07:52:35.644Z,994.43
2017-08-15T07:53:35.673Z,994.39
2017-08-15T07:54:35.702Z,994.38
2017-08-15T07:55:35.731Z,994.36
2017-08-15T07:56:35.762Z,994.33
2017-08-15T07:57:35.789Z,994.28
2017-08-15T07:58:35.818Z,994.24
2017-08-15T07:59:35.846Z,994.21
2017-08-15T08:00:35.873Z,994.22
2017-08-15T08:01:35.899Z,994.2
2017-08-15T08:02:35.933Z,994.23
2017-08-15T08:03:35.963Z,994.24
2017-08-15T08:04:35.987Z,994.29
2017-08-15T08:05:36.013Z,994.27
2017-08-15T08:06:36.044Z,994.28
2017-08-15T08:07:36.072Z,994.3
2017-08-15T08:08:36.102Z,994.3
2017-08-15T08:09:36.126Z,994.29
2017-08-15T08:10:36.172Z,994.29
2017-08-15T08:11:36.184Z,994.27
2017-08-15T08:12:36.217Z,994.23
2017-08-15T08:13:36.246Z,994.25
2017-08-15T08:14:36.274Z,994.25
2017-08-15T08:15:36.303Z,994.26
2017-08-15T08:16:36.335Z,994.31
2017-08-15T08:17:36.360Z,994.32
2017-08-15T08:18:36.390Z,994.35
2017-08-15T08:19:36.418Z,994.33
2017-08-15T08:20:36.443Z,994.32
2017-08-15T08:21:36.476Z,994.3
2017-08-15T08:22:36.505Z,994.25
2017-08-15T08:23:36.533Z,994.25
2017-08-15T08:24:36.561Z,994.29
2017-08-15T08:25:36.592Z,994.29
2017-08-15T08:26:36.616Z,994.22
2017-08-15T08:27:36.644Z,994.24
2017-08-15T08:28:36.678Z,994.19
2017-08-15T08:29:36.702Z,994.19
2017-08-15T08:30:36.737Z,994.17
2017-08-15T08:31:36.764Z,994.14
2017-08-15T08:32:36.793Z,994.14
2017-08-15T08:33:36.821Z,994.14
2017-08-15T08:34:36.850Z,994.17
2017-08-15T08:35:36.880Z,994.15
2017-08-15T08:36:36.908Z,994.1
2017-08-15T08:37:36.939Z,994.16
2017-08-15T08:38:36.968Z,994.15
2017-08-15T08:39:36.991Z,994.13
2017-08-15T08:40:37.023Z,994.1
2017-08-15T08:41:37.052Z,994.11
2017-08-15T08:42:37.330Z,994.1
2017-08-15T08:43:37.111Z,994.15
2017-08-15T08:44:37.140Z,994.14
2017-08-15T08:45:37.170Z,994.11
2017-08-15T08:46:37.192Z,994.08
2017-08-15T08:47:37.527Z,994.13
2017-08-15T08:48:37.254Z,994.13
2017-08-15T08:49:37.278Z,994.07
2017-08-15T08:50:37.314Z,994.08
2017-08-15T08:51:37.344Z,994.12
2017-08-15T08:52:37.618Z,994.09
2017-08-15T08:53:37.399Z,994.13
2017-08-15T08:54:37.429Z,994.12
2017-08-15T08:55:37.456Z,994.15
2017-08-15T08:56:37.485Z,994.13
2017-08-15T08:57:37.764Z,994.14
2017-08-15T08:58:37.538Z,994.17
2017-08-15T08:59:37.572Z,994.18
2017-08-15T09:00:37.603Z,994.2
2017-08-15T09:01:37.625Z,994.22
2017-08-15T09:02:37.961Z,994.23
2017-08-15T09:03:37.711Z,994.26
2017-08-15T09:04:37.720Z,994.27
2017-08-15T09:05:37.759Z,994.31
2017-08-15T09:06:37.776Z,994.29
2017-08-15T09:07:38.106Z,994.32
2017-08-15T09:08:37.835Z,994.31
2017-08-15T09:09:37.865Z,994.34
2017-08-15T09:10:37.892Z,994.29
2017-08-15T09:11:37.921Z,994.32
2017-08-15T09:12:38.245Z,994.37
2017-08-15T09:13:37.980Z,994.37
2017-08-15T09:14:38.008Z,994.39
2017-08-15T09:15:38.055Z,994.34
2017-08-15T09:16:38.060Z,994.34
2017-08-15T09:17:38.093Z,994.32
2017-08-15T09:18:38.144Z,994.38
2017-08-15T09:19:38.156Z,994.37
2017-08-15T09:20:38.184Z,994.39
2017-08-15T09:21:38.213Z,994.36
2017-08-15T09:22:38.242Z,994.34
2017-08-15T09:23:38.272Z,994.35
2017-08-15T09:24:38.299Z,994.34
2017-08-15T09:25:38.329Z,994.31
2017-08-15T09:26:38.358Z,994.28
2017-08-15T09:27:38.386Z,994.26
2017-08-15T09:28:38.412Z,994.28
2017-08-15T09:29:38.448Z,994.33
2017-08-15T09:30:38.477Z,994.32
2017-08-15T09:31:38.500Z,994.34
2017-08-15T09:32:38.530Z,994.33
2017-08-15T09:33:38.562Z,994.4
2017-08-15T09:34:38.591Z,994.37
2017-08-15T09:35:38.622Z,994.42
2017-08-15T09:36:38.649Z,994.33
2017-08-15T09:37:38.678Z,994.31
2017-08-15T09:38:38.707Z,994.3
2017-08-15T09:39:38.736Z,994.37
2017-08-15T09:40:38.768Z,994.41
2017-08-15T09:41:38.799Z,994.41
2017-08-15T09:42:38.827Z,994.42
2017-08-15T09:43:38.855Z,994.41
2017-08-15T09:44:38.884Z,994.42
2017-08-15T09:45:38.909Z,994.41
2017-08-15T09:46:38.943Z,994.43
2017-08-15T09:47:38.970Z,994.43
2017-08-15T09:48:39.001Z,994.44
2017-08-15T09:49:39.031Z,994.44
2017-08-15T09:50:39.057Z,994.45
2017-08-15T09:51:39.089Z,994.52
2017-08-15T09:52:39.118Z,994.58
2017-08-15T09:53:39.147Z,994.61
2017-08-15T09:54:39.174Z,994.62
2017-08-15T09:55:39.205Z,994.64
2017-08-15T09:56:39.233Z,994.65
2017-08-15T09:57:39.262Z,994.64
2017-08-15T09:58:39.291Z,994.64
2017-08-15T09:59:39.317Z,994.66
2017-08-15T10:00:39.353Z,994.7
2017-08-15T10:01:39.382Z,994.72
2017-08-15T10:02:39.409Z,994.7
2017-08-15T10:03:39.438Z,994.75
2017-08-15T10:04:39.469Z,994.85
2017-08-15T10:05:39.496Z,994.87
2017-08-15T10:06:39.525Z,994.87
2017-08-15T10:07:39.555Z,994.88
2017-08-15T10:08:39.583Z,994.9
2017-08-15T10:09:39.610Z,994.9
2017-08-15T10:10:39.645Z,994.89
2017-08-15T10:11:39.672Z,994.92
2017-08-15T10:12:39.703Z,995
2017-08-15T10:13:39.730Z,994.99
2017-08-15T10:14:39.761Z,995.09
2017-08-15T10:15:39.790Z,995.1
2017-08-15T10:16:39.818Z,995.17
2017-08-15T10:17:39.847Z,995.28
2017-08-15T10:18:39.874Z,995.34
2017-08-15T10:19:39.912Z,995.53
2017-08-15T10:20:39.933Z,995.71
2017-08-15T10:21:39.964Z,995.82
2017-08-15T10:22:39.993Z,995.79
2017-08-15T10:23:40.020Z,995.79
2017-08-15T10:24:40.051Z,995.79
2017-08-15T10:25:40.081Z,995.74
2017-08-15T10:26:40.109Z,995.83
2017-08-15T10:27:40.135Z,995.85
2017-08-15T10:28:40.167Z,995.87
2017-08-15T10:29:40.196Z,995.93
2017-08-15T10:30:40.220Z,996.05
2017-08-15T10:31:40.253Z,996.13
2017-08-15T10:32:40.283Z,996.16
2017-08-15T10:33:40.316Z,996.18
2017-08-15T10:34:40.344Z,996.17
2017-08-15T10:35:40.371Z,996.15
2017-08-15T10:36:40.398Z,996.16
2017-08-15T10:37:40.430Z,996.24
2017-08-15T10:38:40.464Z,996.33
2017-08-15T10:39:40.487Z,996.37
2017-08-15T10:40:40.518Z,996.36
2017-08-15T10:41:40.542Z,996.33
2017-08-15T10:42:40.577Z,996.27
2017-08-15T10:43:40.600Z,996.25
2017-08-15T10:44:40.638Z,996.18
2017-08-15T10:45:40.667Z,996.19
2017-08-15T10:46:40.694Z,996.1
2017-08-15T10:47:40.723Z,996.07
2017-08-15T10:48:41.052Z,996
2017-08-15T10:49:40.778Z,995.98
2017-08-15T10:50:40.809Z,995.99
2017-08-15T10:51:40.838Z,996.04
2017-08-15T10:52:40.866Z,996.1
2017-08-15T10:53:41.196Z,996.06
2017-08-15T10:54:40.925Z,996.1
2017-08-15T10:55:40.950Z,996.15
2017-08-15T10:56:40.983Z,996.14
2017-08-15T10:57:41.012Z,996.12
2017-08-15T10:58:41.040Z,996.1
2017-08-15T10:59:41.074Z,996.18
2017-08-15T11:00:41.097Z,996.15
2017-08-15T11:01:41.133Z,996.1
2017-08-15T11:02:41.160Z,996.09
2017-08-15T11:03:41.185Z,996.01
2017-08-15T11:04:41.216Z,995.95
2017-08-15T11:05:41.242Z,995.88
2017-08-15T11:06:41.270Z,995.76
2017-08-15T11:07:41.303Z,995.55
2017-08-15T11:08:41.333Z,995.39
2017-08-15T11:09:41.354Z,995.26
2017-08-15T11:10:41.394Z,995.2
2017-08-15T11:11:41.419Z,995.13
2017-08-15T11:12:41.447Z,995.14
2017-08-15T11:13:41.474Z,995.07
2017-08-15T11:14:41.503Z,995.23
2017-08-15T11:15:41.534Z,995.26
2017-08-15T11:16:41.557Z,995.29
2017-08-15T11:17:41.590Z,995.27
2017-08-15T11:18:41.620Z,995.29
2017-08-15T11:19:41.649Z,995.28
2017-08-15T11:20:41.676Z,995.39
2017-08-15T11:21:41.706Z,995.48
2017-08-15T11:22:41.734Z,995.51
2017-08-15T11:23:41.769Z,995.51
2017-08-15T11:24:41.792Z,995.6
2017-08-15T11:25:41.821Z,995.6
2017-08-15T11:26:41.851Z,995.56
2017-08-15T11:27:41.879Z,995.52
2017-08-15T11:28:41.912Z,995.46
2017-08-15T11:29:41.936Z,995.42
2017-08-15T11:30:41.966Z,995.4
2017-08-15T11:31:41.997Z,995.37
2017-08-15T11:32:42.019Z,995.38
2017-08-15T11:33:42.052Z,995.34
2017-08-15T11:34:42.081Z,995.32
2017-08-15T11:35:42.119Z,995.3
2017-08-15T11:36:42.138Z,995.32
2017-08-15T11:37:42.170Z,995.32
2017-08-15T11:38:42.196Z,995.39
2017-08-15T11:39:42.229Z,995.31
2017-08-15T11:40:42.252Z,995.28
2017-08-15T11:41:42.285Z,995.14
2017-08-15T11:42:42.308Z,995.24
2017-08-15T11:43:42.340Z,995.17
2017-08-15T11:44:42.370Z,995.17
2017-08-15T11:45:42.398Z,995.14
2017-08-15T11:46:42.427Z,995.13
2017-08-15T11:47:42.452Z,995.12
2017-08-15T11:48:42.484Z,995.17
2017-08-15T11:49:42.513Z,995.16
2017-08-15T11:50:42.541Z,995.14
2017-08-15T11:51:42.572Z,995.14
2017-08-15T11:52:42.597Z,995.13
2017-08-15T11:53:42.631Z,995.15
2017-08-15T11:54:42.653Z,995.11
2017-08-15T11:55:42.687Z,995.1
2017-08-15T11:56:42.712Z,995.07
2017-08-15T11:57:42.745Z,995.08
2017-08-15T11:58:42.773Z,995.1
2017-08-15T11:59:42.802Z,995.09
2017-08-15T12:00:42.831Z,995.1
2017-08-15T12:01:42.863Z,995.09
2017-08-15T12:02:42.888Z,995.12
2017-08-15T12:03:42.917Z,995.16
2017-08-15T12:04:42.945Z,995.16
2017-08-15T12:05:42.975Z,995.21
2017-08-15T12:06:42.999Z,995.24
2017-08-15T12:07:43.029Z,995.24
2017-08-15T12:08:43.061Z,995.26
2017-08-15T12:09:43.088Z,995.26
2017-08-15T12:10:43.118Z,995.28
2017-08-15T12:11:43.148Z,995.3
2017-08-15T12:12:43.176Z,995.27
2017-08-15T12:13:43.205Z,995.29
2017-08-15T12:14:43.230Z,995.28
2017-08-15T12:15:43.258Z,995.27
2017-08-15T12:16:43.286Z,995.29
2017-08-15T12:17:43.320Z,995.37
2017-08-15T12:18:43.353Z,995.4
2017-08-15T12:19:43.377Z,995.4
2017-08-15T12:20:43.407Z,995.4
2017-08-15T12:21:43.436Z,995.48
2017-08-15T12:22:43.465Z,995.28
2017-08-15T12:23:43.497Z,995.27
2017-08-15T12:24:43.524Z,995.28
2017-08-15T12:25:43.553Z,995.26
2017-08-15T12:26:43.585Z,995.29
2017-08-15T12:27:43.615Z,995.37
2017-08-15T12:28:43.642Z,995.39
2017-08-15T12:29:43.670Z,995.46
2017-08-15T12:30:43.698Z,995.54
2017-08-15T12:31:43.727Z,995.51
2017-08-15T12:32:43.757Z,995.49